createdAt,value
2023-05-07T00:01:40.316Z,6.70
2023-05-07T00:04:08.844Z,6.88
2023-05-07T00:06:35.768Z,6.32
2023-05-07T00:09:02.651Z,6.45
2023-05-07T00:11:29.650Z,5.68
2023-05-07T00:13:56.446Z,6.90
2023-05-07T00:16:23.429Z,6.07
2023-05-07T00:18:50.287Z,6.15
2023-05-07T00:21:17.421Z,6.00
2023-05-07T00:23:44.155Z,6.25
2023-05-07T00:26:11.000Z,6.43
2023-05-07T00:28:37.731Z,6.03
2023-05-07T00:31:04.468Z,6.07
2023-05-07T00:33:31.249Z,6.10
2023-05-07T00:35:58.029Z,6.03
2023-05-07T00:38:24.974Z,5.47
2023-05-07T00:40:52.770Z,5.25
2023-05-07T00:43:19.667Z,5.28
2023-05-07T00:45:46.789Z,5.65
2023-05-07T00:48:15.304Z,5.60
2023-05-07T00:50:42.290Z,5.82
2023-05-07T00:53:09.162Z,6.05
2023-05-07T00:55:37.577Z,5.70
2023-05-07T00:58:04.610Z,5.90
2023-05-07T01:00:31.790Z,6.50
2023-05-07T01:02:59.175Z,5.60
2023-05-07T01:05:29.056Z,5.38
2023-05-07T01:07:57.134Z,5.70
2023-05-07T01:10:24.695Z,5.38
2023-05-07T01:12:51.768Z,5.57
2023-05-07T01:15:19.107Z,5.35
2023-05-07T01:17:46.572Z,5.13
2023-05-07T01:20:14.092Z,5.25
2023-05-07T01:22:41.470Z,6.00
2023-05-07T01:25:09.394Z,5.78
2023-05-07T01:27:38.370Z,5.45
2023-05-07T01:30:06.396Z,5.25
2023-05-07T01:32:42.067Z,5.70
2023-05-07T01:35:12.312Z,5.78
2023-05-07T01:37:41.249Z,5.78
2023-05-07T01:40:09.619Z,6.05
2023-05-07T01:42:37.504Z,5.60
2023-05-07T01:45:04.578Z,5.95
2023-05-07T01:47:31.817Z,5.25
2023-05-07T01:49:59.337Z,5.82
2023-05-07T01:52:26.400Z,5.63
2023-05-07T01:54:53.180Z,5.53
2023-05-07T01:57:20.108Z,5.88
2023-05-07T01:59:46.832Z,5.60
2023-05-07T02:02:13.652Z,5.60
2023-05-07T02:04:40.529Z,5.63
2023-05-07T02:07:07.341Z,4.80
2023-05-07T02:09:34.148Z,5.20
2023-05-07T02:12:01.067Z,5.15
2023-05-07T02:14:27.807Z,5.47
2023-05-07T02:16:54.633Z,5.93
2023-05-07T02:19:22.389Z,5.68
2023-05-07T02:21:49.424Z,5.50
2023-05-07T02:24:16.294Z,5.15
2023-05-07T02:26:43.092Z,5.40
2023-05-07T02:29:09.853Z,5.70
2023-05-07T02:31:36.681Z,6.05
2023-05-07T02:34:03.512Z,5.22
2023-05-07T02:36:30.411Z,4.88
2023-05-07T02:39:00.084Z,4.90
2023-05-07T02:41:26.893Z,5.30
2023-05-07T02:43:53.630Z,4.93
2023-05-07T02:46:20.482Z,5.07
2023-05-07T02:48:47.317Z,4.97
2023-05-07T02:51:14.065Z,5.35
2023-05-07T02:53:40.900Z,4.80
2023-05-07T02:56:08.063Z,5.03
2023-05-07T02:58:34.826Z,5.47
2023-05-07T03:01:01.831Z,4.78
2023-05-07T03:03:28.633Z,5.30
2023-05-07T03:05:55.448Z,5.28
2023-05-07T03:08:22.191Z,5.07
2023-05-07T03:10:49.161Z,5.07
2023-05-07T03:13:16.165Z,4.93
2023-05-07T03:15:42.962Z,4.80
2023-05-07T03:18:09.843Z,5.35
2023-05-07T03:20:37.732Z,4.70
2023-05-07T03:23:04.707Z,4.70
2023-05-07T03:25:31.752Z,4.90
2023-05-07T03:27:58.527Z,4.60
2023-05-07T03:30:25.417Z,4.88
2023-05-07T03:32:52.260Z,4.95
2023-05-07T03:35:19.287Z,4.90
2023-05-07T03:37:46.086Z,4.95
2023-05-07T03:40:13.853Z,5.05
2023-05-07T03:42:40.862Z,5.05
2023-05-07T03:45:08.440Z,5.40
2023-05-07T03:47:35.268Z,5.80
2023-05-07T03:50:02.310Z,5.57
2023-05-07T03:52:29.197Z,5.82
2023-05-07T03:54:56.414Z,5.60
2023-05-07T03:57:23.345Z,5.70
2023-05-07T03:59:50.139Z,6.72
2023-05-07T04:02:17.051Z,7.82
2023-05-07T04:04:43.890Z,7.47
2023-05-07T04:07:11.241Z,8.23
2023-05-07T04:09:38.057Z,7.85
2023-05-07T04:12:05.133Z,8.18
2023-05-07T04:14:33.378Z,7.72
2023-05-07T04:17:00.828Z,9.10
2023-05-07T04:19:27.609Z,8.80
2023-05-07T04:21:54.449Z,8.65
2023-05-07T04:24:21.418Z,8.05
2023-05-07T04:26:48.243Z,8.55
2023-05-07T04:29:15.014Z,8.80
2023-05-07T04:31:41.845Z,9.38
2023-05-07T04:34:08.683Z,9.65
2023-05-07T04:36:35.473Z,8.70
2023-05-07T04:39:03.934Z,9.43
2023-05-07T04:41:30.756Z,10.07
2023-05-07T04:44:00.181Z,9.43
2023-05-07T04:46:27.123Z,9.40
2023-05-07T04:48:53.987Z,10.07
2023-05-07T04:51:20.756Z,9.43
2023-05-07T04:53:47.530Z,9.82
2023-05-07T04:56:14.527Z,9.38
2023-05-07T04:58:41.692Z,10.18
2023-05-07T05:01:08.565Z,10.07
2023-05-07T05:03:35.505Z,9.57
2023-05-07T05:06:02.330Z,9.20
2023-05-07T05:08:29.101Z,9.88
2023-05-07T05:10:55.989Z,9.40
2023-05-07T05:13:22.953Z,9.98
2023-05-07T05:15:49.907Z,9.75
2023-05-07T05:18:16.697Z,9.93
2023-05-07T05:20:43.472Z,9.65
2023-05-07T05:23:10.343Z,9.55
2023-05-07T05:25:37.145Z,9.07
2023-05-07T05:28:04.059Z,9.70
2023-05-07T05:30:30.800Z,10.07
2023-05-07T05:32:57.634Z,9.68
2023-05-07T05:35:24.542Z,10.05
2023-05-07T05:37:51.456Z,10.10
2023-05-07T05:40:18.301Z,9.80
2023-05-07T05:42:45.093Z,10.30
2023-05-07T05:45:11.945Z,9.38
2023-05-07T05:47:39.111Z,9.63
2023-05-07T05:50:07.664Z,10.00
2023-05-07T05:52:34.417Z,9.40
2023-05-07T05:55:01.202Z,10.07
2023-05-07T05:57:28.724Z,10.10
2023-05-07T05:59:56.161Z,10.10
2023-05-07T06:02:23.089Z,10.27
2023-05-07T06:04:50.318Z,10.55
2023-05-07T06:07:17.040Z,10.38
2023-05-07T06:09:43.797Z,9.50
2023-05-07T06:12:10.507Z,10.45
2023-05-07T06:14:37.326Z,9.98
2023-05-07T06:17:04.306Z,10.05
2023-05-07T06:19:31.157Z,10.82
2023-05-07T06:21:57.909Z,9.40
2023-05-07T06:24:25.930Z,9.38
2023-05-07T06:26:52.706Z,9.98
2023-05-07T06:29:19.611Z,9.93
2023-05-07T06:31:46.596Z,10.02
2023-05-07T06:34:15.638Z,9.55
2023-05-07T06:36:42.577Z,10.20
2023-05-07T06:39:09.495Z,9.60
2023-05-07T06:41:36.817Z,9.70
2023-05-07T06:44:04.251Z,10.05
2023-05-07T06:46:31.242Z,9.95
2023-05-07T06:48:58.162Z,9.90
2023-05-07T06:51:25.091Z,9.98
2023-05-07T06:53:51.891Z,10.50
2023-05-07T06:56:18.606Z,9.70
2023-05-07T06:58:45.357Z,9.40
2023-05-07T07:01:12.239Z,10.43
2023-05-07T07:03:38.999Z,10.30
2023-05-07T07:06:05.916Z,10.35
2023-05-07T07:08:32.734Z,9.95
2023-05-07T07:10:59.514Z,10.00
2023-05-07T07:13:26.528Z,10.23
2023-05-07T07:15:54.560Z,9.60
2023-05-07T07:18:21.727Z,10.05
2023-05-07T07:20:48.629Z,9.40
2023-05-07T07:23:15.767Z,10.10
2023-05-07T07:25:42.674Z,9.60
2023-05-07T07:28:09.527Z,9.63
2023-05-07T07:30:36.391Z,9.43
2023-05-07T07:33:04.486Z,9.95
2023-05-07T07:35:31.582Z,9.80
2023-05-07T07:37:58.466Z,10.63
2023-05-07T07:40:26.105Z,9.65
2023-05-07T07:42:53.868Z,9.98
2023-05-07T07:45:20.920Z,10.00
2023-05-07T07:47:47.939Z,10.18
2023-05-07T07:50:21.990Z,9.70
2023-05-07T07:52:52.182Z,9.40
2023-05-07T07:55:24.118Z,9.68
2023-05-07T07:57:51.327Z,10.20
2023-05-07T08:00:18.475Z,9.55
2023-05-07T08:02:46.205Z,9.85
2023-05-07T08:05:13.145Z,9.02
2023-05-07T08:07:39.907Z,9.20
2023-05-07T08:10:07.290Z,9.25
2023-05-07T08:12:34.061Z,8.90
2023-05-07T08:15:00.825Z,8.85
2023-05-07T08:17:27.735Z,9.43
2023-05-07T08:19:54.464Z,9.30
2023-05-07T08:22:21.193Z,9.23
2023-05-07T08:24:48.001Z,9.35
2023-05-07T08:27:14.796Z,9.68
2023-05-07T08:29:41.546Z,9.27
2023-05-07T08:32:08.333Z,9.43
2023-05-07T08:34:35.062Z,8.77
2023-05-07T08:37:01.863Z,9.30
2023-05-07T08:39:31.335Z,8.57
2023-05-07T08:42:01.227Z,9.20
2023-05-07T08:44:29.681Z,8.70
2023-05-07T08:46:58.001Z,9.07
2023-05-07T08:49:24.890Z,8.52
2023-05-07T08:51:52.717Z,8.02
2023-05-07T08:54:21.148Z,8.52
2023-05-07T08:56:48.028Z,9.05
2023-05-07T08:59:15.101Z,8.48
2023-05-07T09:01:42.170Z,9.10
2023-05-07T09:04:10.670Z,9.05
2023-05-07T09:06:39.249Z,8.75
2023-05-07T09:09:06.710Z,8.45
2023-05-07T09:11:33.589Z,8.00
2023-05-07T09:14:03.982Z,7.50
2023-05-07T09:16:33.649Z,8.30
2023-05-07T09:19:01.852Z,7.97
2023-05-07T09:21:28.713Z,8.25
2023-05-07T09:23:56.675Z,8.35
2023-05-07T09:26:24.769Z,7.60
2023-05-07T09:28:52.097Z,7.85
2023-05-07T09:31:21.057Z,8.23
2023-05-07T09:33:48.332Z,8.77
2023-05-07T09:36:15.175Z,8.50
2023-05-07T09:38:42.725Z,8.35
2023-05-07T09:41:11.854Z,8.13
2023-05-07T09:43:40.794Z,8.52
2023-05-07T09:46:12.876Z,8.20
2023-05-07T09:48:41.989Z,8.48
2023-05-07T09:51:30.967Z,8.57
2023-05-07T09:53:59.064Z,8.55
2023-05-07T09:56:27.007Z,8.48
2023-05-07T09:58:55.832Z,8.40
2023-05-07T10:01:23.831Z,9.07
2023-05-07T10:03:51.980Z,7.90
2023-05-07T10:06:18.989Z,7.57
2023-05-07T10:08:46.587Z,7.50
2023-05-07T10:11:13.660Z,7.93
2023-05-07T10:13:41.423Z,7.70
2023-05-07T10:16:08.869Z,7.78
2023-05-07T10:18:36.117Z,8.10
2023-05-07T10:21:12.390Z,7.78
2023-05-07T10:23:39.920Z,7.95
2023-05-07T10:26:09.280Z,6.68
2023-05-07T10:28:40.996Z,8.25
2023-05-07T10:31:38.445Z,7.18
2023-05-07T10:34:11.405Z,7.50
2023-05-07T10:36:38.737Z,6.93
2023-05-07T10:39:07.427Z,6.90
2023-05-07T10:41:34.342Z,6.72
2023-05-07T10:44:03.461Z,6.72
2023-05-07T10:46:30.624Z,7.18
2023-05-07T10:49:07.537Z,6.75
2023-05-07T10:51:34.560Z,7.50
2023-05-07T10:54:16.875Z,7.43
2023-05-07T10:56:44.520Z,6.90
2023-05-07T10:59:31.815Z,6.07
2023-05-07T11:02:00.495Z,6.25
2023-05-07T11:04:28.843Z,6.95
2023-05-07T11:07:08.005Z,6.88
2023-05-07T11:09:53.198Z,5.90
2023-05-07T11:12:42.235Z,6.05
2023-05-07T11:15:13.290Z,6.15
2023-05-07T11:17:57.792Z,6.13
2023-05-07T11:20:48.418Z,5.88
2023-05-07T11:23:36.810Z,5.70
2023-05-07T11:26:05.284Z,6.05
2023-05-07T11:28:37.405Z,5.40
2023-05-07T11:31:04.874Z,5.35
2023-05-07T11:33:32.090Z,6.07
2023-05-07T11:35:59.566Z,6.25
2023-05-07T11:38:26.966Z,6.03
2023-05-07T11:40:55.350Z,5.90
2023-05-07T11:43:22.192Z,5.75
2023-05-07T11:45:50.116Z,5.65
2023-05-07T11:48:17.918Z,5.55
2023-05-07T11:50:59.757Z,6.07
2023-05-07T11:53:28.068Z,5.38
2023-05-07T11:55:56.835Z,5.60
2023-05-07T11:58:25.370Z,5.80
2023-05-07T12:00:53.482Z,6.40
2023-05-07T12:03:21.239Z,6.07
2023-05-07T12:05:49.140Z,5.68
2023-05-07T12:08:20.388Z,5.57
2023-05-07T12:10:50.264Z,5.20
2023-05-07T12:13:22.327Z,6.03
2023-05-07T12:15:56.427Z,5.63
2023-05-07T12:18:24.395Z,4.95
2023-05-07T12:20:51.814Z,4.70
2023-05-07T12:23:19.061Z,4.65
2023-05-07T12:25:49.137Z,4.28
2023-05-07T12:28:17.691Z,4.43
2023-05-07T12:30:49.664Z,4.95
2023-05-07T12:33:20.462Z,5.13
2023-05-07T12:35:49.254Z,5.10
2023-05-07T12:38:19.062Z,4.82
2023-05-07T12:40:48.680Z,4.50
2023-05-07T12:43:25.383Z,4.57
2023-05-07T12:45:55.372Z,4.70
2023-05-07T12:48:22.917Z,4.40
2023-05-07T12:50:56.727Z,4.75
2023-05-07T12:53:26.080Z,4.22
2023-05-07T12:55:55.152Z,3.90
2023-05-07T12:58:26.556Z,4.40
2023-05-07T13:00:54.000Z,4.57
2023-05-07T13:03:29.242Z,4.78
2023-05-07T13:05:59.240Z,4.35
2023-05-07T13:08:28.164Z,3.97
2023-05-07T13:10:55.321Z,4.30
2023-05-07T13:13:22.816Z,4.10
2023-05-07T13:15:49.758Z,4.22
2023-05-07T13:18:16.766Z,3.90
2023-05-07T13:20:43.734Z,3.70
2023-05-07T13:23:10.516Z,3.70
2023-05-07T13:25:39.069Z,3.75
2023-05-07T13:28:10.752Z,3.55
2023-05-07T13:30:38.341Z,3.05
2023-05-07T13:33:05.355Z,3.55
2023-05-07T13:35:32.278Z,3.25
2023-05-07T13:37:59.107Z,3.35
2023-05-07T13:40:26.230Z,3.25
2023-05-07T13:42:53.143Z,3.10
2023-05-07T13:45:20.250Z,2.92
2023-05-07T13:47:48.013Z,2.90
2023-05-07T13:50:14.903Z,3.00
2023-05-07T13:52:46.976Z,3.55
2023-05-07T13:55:14.188Z,3.00
2023-05-07T13:57:41.284Z,3.58
2023-05-07T14:00:08.812Z,3.10
2023-05-07T14:02:35.751Z,3.10
2023-05-07T14:05:02.678Z,3.47
2023-05-07T14:07:29.610Z,3.10
2023-05-07T14:09:58.641Z,3.15
2023-05-07T14:12:26.019Z,2.97
2023-05-07T14:14:53.278Z,3.35
2023-05-07T14:17:21.362Z,3.10
2023-05-07T14:19:48.295Z,3.30
2023-05-07T14:22:16.760Z,3.33
2023-05-07T14:24:45.241Z,3.58
2023-05-07T14:27:13.568Z,3.38
2023-05-07T14:29:41.224Z,3.38
2023-05-07T14:32:08.103Z,3.60
2023-05-07T14:34:34.988Z,3.67
2023-05-07T14:37:01.886Z,3.60
2023-05-07T14:39:28.722Z,3.63
2023-05-07T14:41:57.391Z,3.88
2023-05-07T14:44:24.401Z,3.47
2023-05-07T14:46:51.992Z,4.30
2023-05-07T14:49:18.832Z,3.88
2023-05-07T14:51:46.627Z,4.20
2023-05-07T14:54:14.343Z,3.70
2023-05-07T14:56:41.839Z,4.10
2023-05-07T14:59:09.601Z,4.30
2023-05-07T15:01:37.658Z,4.63
2023-05-07T15:04:05.954Z,4.78
2023-05-07T15:06:33.623Z,4.72
2023-05-07T15:09:00.576Z,4.18
2023-05-07T15:11:28.220Z,4.50
2023-05-07T15:13:56.338Z,4.38
2023-05-07T15:16:23.308Z,4.53
2023-05-07T15:18:50.371Z,4.43
2023-05-07T15:21:17.294Z,4.22
2023-05-07T15:23:45.659Z,4.75
2023-05-07T15:26:12.537Z,4.15
2023-05-07T15:28:40.729Z,4.50
2023-05-07T15:31:08.266Z,4.88
2023-05-07T15:33:35.265Z,4.22
2023-05-07T15:36:02.942Z,3.80
2023-05-07T15:38:30.358Z,4.50
2023-05-07T15:40:57.251Z,5.05
2023-05-07T15:43:24.214Z,4.90
2023-05-07T15:45:51.320Z,4.57
2023-05-07T15:48:18.196Z,4.45
2023-05-07T15:50:45.061Z,5.43
2023-05-07T15:53:13.964Z,5.22
2023-05-07T15:55:43.233Z,5.93
2023-05-07T15:58:10.238Z,4.57
2023-05-07T16:00:40.964Z,6.97
2023-05-07T16:03:09.363Z,5.97
2023-05-07T16:05:36.352Z,4.93
2023-05-07T16:08:04.423Z,4.97
2023-05-07T16:10:31.652Z,4.85
2023-05-07T16:12:58.903Z,4.68
2023-05-07T16:15:25.900Z,4.32
2023-05-07T16:17:58.302Z,4.60
2023-05-07T16:20:32.405Z,4.47
2023-05-07T16:22:59.356Z,4.93
2023-05-07T16:25:26.957Z,4.75
2023-05-07T16:27:55.006Z,4.80
2023-05-07T16:30:21.856Z,4.70
2023-05-07T16:32:48.681Z,4.82
2023-05-07T16:35:15.601Z,5.32
2023-05-07T16:37:46.065Z,4.90
2023-05-07T16:40:13.544Z,4.47
2023-05-07T16:42:40.344Z,5.03
2023-05-07T16:45:07.577Z,5.32
2023-05-07T16:47:34.639Z,5.30
2023-05-07T16:50:01.558Z,4.38
2023-05-07T16:52:30.386Z,5.07
2023-05-07T16:55:01.114Z,5.00
2023-05-07T16:57:31.025Z,5.10
2023-05-07T16:59:59.257Z,5.22
2023-05-07T17:02:26.178Z,5.50
2023-05-07T17:04:53.216Z,5.18
2023-05-07T17:07:19.980Z,6.40
2023-05-07T17:09:46.774Z,5.57
2023-05-07T17:12:13.802Z,4.80
2023-05-07T17:14:40.620Z,5.45
2023-05-07T17:17:07.345Z,4.85
2023-05-07T17:19:39.730Z,4.80
2023-05-07T17:22:06.889Z,5.50
2023-05-07T17:24:33.628Z,4.68
2023-05-07T17:27:00.779Z,5.00
2023-05-07T17:29:27.798Z,5.13
2023-05-07T17:31:54.583Z,5.05
2023-05-07T17:34:21.409Z,4.82
2023-05-07T17:36:48.202Z,4.97
2023-05-07T17:39:14.989Z,4.68
2023-05-07T17:41:41.736Z,4.65
2023-05-07T17:44:08.501Z,4.78
2023-05-07T17:46:35.328Z,5.30
2023-05-07T17:49:02.247Z,4.82
2023-05-07T17:51:36.089Z,5.10
2023-05-07T17:54:09.372Z,5.28
2023-05-07T17:56:38.069Z,5.25
2023-05-07T17:59:05.296Z,5.45
2023-05-07T18:01:34.300Z,5.18
2023-05-07T18:04:02.895Z,5.85
2023-05-07T18:06:29.893Z,5.47
2023-05-07T18:08:57.089Z,5.25
2023-05-07T18:11:24.635Z,5.35
2023-05-07T18:13:51.549Z,4.10
2023-05-07T18:16:19.529Z,3.70
2023-05-07T18:18:47.106Z,3.95
2023-05-07T18:21:19.133Z,3.53
2023-05-07T18:23:46.882Z,3.65
2023-05-07T18:26:13.862Z,3.22
2023-05-07T18:28:41.400Z,3.33
2023-05-07T18:31:08.358Z,4.35
2023-05-07T18:33:35.107Z,4.68
2023-05-07T18:36:02.016Z,5.13
2023-05-07T18:38:28.916Z,4.60
2023-05-07T18:41:05.817Z,4.13
2023-05-07T18:43:34.189Z,4.47
2023-05-07T18:46:01.353Z,4.00
2023-05-07T18:48:28.387Z,4.82
2023-05-07T18:50:55.256Z,5.22
2023-05-07T18:53:22.168Z,5.70
2023-05-07T18:55:52.826Z,5.47
2023-05-07T18:58:20.474Z,5.53
2023-05-07T19:00:48.709Z,5.53
2023-05-07T19:03:16.324Z,5.72
2023-05-07T19:05:43.875Z,5.82
2023-05-07T19:08:10.972Z,5.57
2023-05-07T19:10:38.245Z,5.63
2023-05-07T19:13:05.508Z,5.65
2023-05-07T19:15:32.403Z,5.90
2023-05-07T19:17:59.256Z,5.15
2023-05-07T19:20:26.348Z,5.30
2023-05-07T19:22:53.162Z,5.32
2023-05-07T19:25:20.277Z,6.05
2023-05-07T19:27:48.254Z,6.07
2023-05-07T19:30:15.648Z,5.70
2023-05-07T19:32:42.451Z,5.30
2023-05-07T19:35:09.756Z,5.90
2023-05-07T19:37:36.508Z,5.78
2023-05-07T19:40:05.459Z,5.28
2023-05-07T19:42:32.976Z,5.30
2023-05-07T19:44:59.820Z,5.63
2023-05-07T19:47:26.990Z,5.30
2023-05-07T19:49:53.973Z,5.20
2023-05-07T19:52:20.812Z,5.90
2023-05-07T19:54:47.712Z,5.85
2023-05-07T19:57:15.840Z,5.38
2023-05-07T19:59:42.638Z,5.65
2023-05-07T20:02:09.511Z,5.15
2023-05-07T20:04:38.353Z,5.13
2023-05-07T20:07:06.032Z,4.85
2023-05-07T20:09:32.816Z,6.22
2023-05-07T20:11:59.666Z,5.20
2023-05-07T20:14:29.538Z,5.20
2023-05-07T20:16:56.355Z,5.30
2023-05-07T20:19:23.181Z,5.30
2023-05-07T20:21:49.991Z,6.00
2023-05-07T20:24:19.117Z,5.13
2023-05-07T20:26:46.597Z,5.43
2023-05-07T20:29:13.435Z,5.20
2023-05-07T20:31:40.809Z,4.82
2023-05-07T20:34:07.814Z,5.13
2023-05-07T20:36:34.854Z,5.20
2023-05-07T20:39:01.604Z,5.03
2023-05-07T20:41:28.512Z,5.00
2023-05-07T20:43:55.274Z,5.40
2023-05-07T20:46:23.140Z,5.35
2023-05-07T20:48:50.296Z,4.85
2023-05-07T20:51:17.373Z,4.78
2023-05-07T20:53:46.121Z,4.80
2023-05-07T20:56:14.469Z,5.03
2023-05-07T20:58:41.223Z,5.07
2023-05-07T21:01:08.138Z,4.55
2023-05-07T21:03:35.080Z,4.72
2023-05-07T21:06:02.072Z,5.00
2023-05-07T21:08:28.851Z,4.50
2023-05-07T21:10:56.477Z,4.93
2023-05-07T21:13:23.818Z,5.28
2023-05-07T21:15:50.911Z,5.60
2023-05-07T21:18:19.159Z,4.65
2023-05-07T21:20:45.965Z,4.97
2023-05-07T21:23:12.778Z,5.07
2023-05-07T21:25:41.692Z,4.88
2023-05-07T21:28:09.615Z,4.90
2023-05-07T21:30:37.216Z,4.40
2023-05-07T21:33:06.281Z,5.45
2023-05-07T21:35:36.177Z,5.47
2023-05-07T21:38:03.461Z,5.47
2023-05-07T21:40:30.710Z,5.38
2023-05-07T21:43:00.400Z,6.47
2023-05-07T21:45:27.256Z,5.38
2023-05-07T21:47:54.117Z,5.10
2023-05-07T21:50:21.494Z,5.43
2023-05-07T21:52:49.561Z,5.28
2023-05-07T21:55:18.121Z,5.43
2023-05-07T21:57:53.795Z,5.90
2023-05-07T22:00:24.706Z,5.50
2023-05-07T22:02:51.589Z,5.50
2023-05-07T22:05:18.480Z,5.80
2023-05-07T22:07:45.238Z,5.35
2023-05-07T22:10:12.133Z,5.57
2023-05-07T22:12:39.108Z,5.93
2023-05-07T22:15:07.046Z,5.65
2023-05-07T22:17:33.822Z,6.43
2023-05-07T22:20:00.635Z,5.63
2023-05-07T22:22:27.388Z,6.13
2023-05-07T22:24:54.161Z,6.57
2023-05-07T22:27:21.098Z,6.25
2023-05-07T22:29:48.200Z,6.05
2023-05-07T22:32:15.159Z,6.00
2023-05-07T22:34:42.064Z,7.00
2023-05-07T22:37:08.989Z,6.38
2023-05-07T22:39:35.894Z,6.35
2023-05-07T22:42:02.766Z,6.32
2023-05-07T22:44:29.761Z,6.63
2023-05-07T22:46:56.608Z,6.82
2023-05-07T22:49:23.534Z,6.90
2023-05-07T22:51:50.341Z,6.65
2023-05-07T22:54:17.093Z,6.97
2023-05-07T22:56:44.220Z,7.28
2023-05-07T22:59:11.087Z,6.72
2023-05-07T23:01:37.924Z,6.75
2023-05-07T23:04:04.988Z,7.05
2023-05-07T23:06:31.769Z,6.88
2023-05-07T23:08:59.165Z,6.97
2023-05-07T23:11:26.611Z,6.97
2023-05-07T23:13:53.392Z,7.00
2023-05-07T23:16:20.242Z,6.90
2023-05-07T23:18:47.147Z,7.30
2023-05-07T23:21:13.966Z,7.57
2023-05-07T23:23:40.691Z,7.53
2023-05-07T23:26:07.461Z,7.45
2023-05-07T23:28:34.458Z,7.05
2023-05-07T23:31:01.229Z,7.28
2023-05-07T23:33:28.023Z,7.40
2023-05-07T23:36:02.324Z,7.75
2023-05-07T23:38:29.260Z,7.60
2023-05-07T23:40:56.466Z,7.40
2023-05-07T23:43:23.661Z,7.68
2023-05-07T23:45:51.055Z,7.70
2023-05-07T23:48:17.850Z,7.85
2023-05-07T23:50:44.826Z,7.75
2023-05-07T23:53:11.623Z,7.82
2023-05-07T23:55:38.527Z,8.13
2023-05-07T23:58:05.310Z,6.75
